Terminal Aerodrome Forecast
Issued by NWS

Home | Current Version | Previous Version | Text Only | Print | Product List | Glossary Off
Versions: 1 2 3 4 5 6 7 8 9 10 11 12 13 14 15 16 17 18 19 20

000
FTUS41 KCLE 141120
TAFFDY
TAF
KFDY 141120Z 1412/1512 VRB03KT P6SM SCT100
     FM150200 14006KT P6SM BKN110
     FM150900 15009KT P6SM OVC020
     FM151100 15009KT 2SM -SHSN OVC015=

USA.gov is the U.S. government's official web portal to all federal, state and local government web resources and services.